Time;durP1;ratioP1;P1;durP2;ratioP2;P2;SDS_P1;SDS_P2;PMS_P1;PMS_P2;Temp;Humidity;BMP_temperature;BMP_pressure;BME280_temperature;BME280_humidity;BME280_pressure;Samples;Min_cycle;Max_cycle;Signal;HPM_P1;HPM_P2
2024/01/01 00:01:02;;;;;;;36.90;33.70;;;7.10;28.00;;;;;;5002392;28;20215;-51
2024/01/01 00:03:28;;;;;;;33.40;30.57;;;7.10;28.20;;;;;;5003683;28;20427;-51
2024/01/01 00:05:53;;;;;;;33.60;30.30;;;7.10;28.00;;;;;;5004886;28;20420;-48
2024/01/01 00:08:19;;;;;;;30.57;28.17;;;7.10;28.20;;;;;;5024008;28;20211;-49
2024/01/01 00:10:47;;;;;;;27.30;25.10;;;7.20;27.90;;;;;;5005809;28;20547;-52
2024/01/01 00:13:12;;;;;;;25.10;22.90;;;7.20;27.80;;;;;;5005752;28;20425;-50
2024/01/01 00:15:38;;;;;;;22.10;20.23;;;7.20;27.80;;;;;;4999821;28;20412;-50
2024/01/01 00:18:04;;;;;;;18.30;16.90;;;7.30;27.80;;;;;;5006129;28;20181;-49
2024/01/01 00:20:30;;;;;;;19.17;17.77;;;7.20;27.60;;;;;;5005742;28;20181;-51
2024/01/01 00:22:55;;;;;;;20.07;18.70;;;7.30;27.50;;;;;;5004347;28;20772;-50
2024/01/01 00:25:21;;;;;;;19.00;17.50;;;7.30;27.50;;;;;;5006805;28;20222;-51
2024/01/01 00:27:46;;;;;;;16.43;14.90;;;7.40;27.40;;;;;;5006471;28;20651;-52
2024/01/01 00:30:12;;;;;;;17.27;15.90;;;7.30;27.10;;;;;;5004753;28;20192;-49
2024/01/01 00:32:38;;;;;;;16.50;15.30;;;7.40;27.20;;;;;;5004551;28;20185;-51
2024/01/01 00:35:04;;;;;;;34.83;31.50;;;7.40;26.90;;;;;;5009533;28;20576;-51
2024/01/01 00:37:29;;;;;;;17.87;16.40;;;7.30;27.10;;;;;;5007585;28;20265;-52
2024/01/01 00:39:55;;;;;;;17.13;15.93;;;7.30;27.20;;;;;;5003907;28;20442;-62
2024/01/01 00:42:22;;;;;;;17.57;16.27;;;7.30;27.30;;;;;;5003881;28;20181;-61
2024/01/01 00:44:48;;;;;;;17.53;16.23;;;7.20;27.60;;;;;;5000868;28;20275;-49
2024/01/01 00:47:13;;;;;;;16.97;15.60;;;7.30;27.50;;;;;;5002016;28;20567;-49
2024/01/01 00:49:39;;;;;;;17.40;16.20;;;7.40;27.10;;;;;;5005284;28;21008;-49
2024/01/01 00:52:05;;;;;;;18.27;16.77;;;7.50;26.90;;;;;;5004113;28;20185;-61
2024/01/01 00:54:31;;;;;;;17.50;16.00;;;7.50;27.00;;;;;;5006918;28;20546;-62
2024/01/01 00:56:57;;;;;;;17.20;15.90;;;7.40;27.00;;;;;;5022831;28;20419;-61
2024/01/01 00:59:23;;;;;;;17.17;15.80;;;7.40;27.10;;;;;;5005913;28;20181;-62
2024/01/01 01:01:49;;;;;;;16.43;15.33;;;7.40;27.30;;;;;;5004083;28;20416;-62
2024/01/01 01:04:15;;;;;;;18.80;17.20;;;7.50;26.80;;;;;;5021002;28;20447;-61
2024/01/01 01:06:40;;;;;;;16.33;15.23;;;7.60;27.10;;;;;;5013051;28;20922;-61
2024/01/01 01:09:06;;;;;;;17.20;15.90;;;7.50;26.80;;;;;;5013586;28;20215;-61
2024/01/01 01:11:32;;;;;;;17.47;16.17;;;7.50;26.90;;;;;;5002513;28;20210;-61
2024/01/01 01:13:57;;;;;;;18.07;16.57;;;7.40;27.00;;;;;;5011503;28;20193;-61
2024/01/01 01:16:23;;;;;;;17.87;16.37;;;7.50;27.20;;;;;;5018409;28;20528;-61
2024/01/01 01:18:49;;;;;;;18.50;16.70;;;7.40;27.10;;;;;;5016294;28;20181;-62
2024/01/01 01:21:15;;;;;;;19.10;17.70;;;7.30;27.40;;;;;;5014455;28;20968;-61
2024/01/01 01:23:42;;;;;;;17.90;16.50;;;7.30;27.60;;;;;;5014994;28;20184;-61
2024/01/01 01:26:08;;;;;;;16.83;15.83;;;7.30;27.60;;;;;;5023001;28;20195;-62
2024/01/01 01:28:34;;;;;;;17.97;16.63;;;7.30;27.40;;;;;;5031626;28;20467;-61
2024/01/01 01:31:02;;;;;;;17.47;16.30;;;7.40;27.50;;;;;;5013978;28;20172;-62
2024/01/01 01:33:27;;;;;;;16.70;15.50;;;7.30;27.80;;;;;;5026463;28;20587;-62
2024/01/01 01:35:53;;;;;;;19.90;18.10;;;7.30;28.00;;;;;;4993823;28;1103799;-62
2024/01/01 01:38:19;;;;;;;17.43;16.20;;;7.40;27.80;;;;;;5022767;28;20223;-61
2024/01/01 01:40:44;;;;;;;17.57;16.07;;;7.50;27.80;;;;;;5015551;28;20192;-61
2024/01/01 01:43:21;;;;;;;17.70;16.47;;;7.50;28.00;;;;;;5032966;28;20591;-62
2024/01/01 01:45:49;;;;;;;17.97;16.67;;;7.60;27.50;;;;;;5021673;28;20600;-61
2024/01/01 01:48:16;;;;;;;15.97;14.93;;;7.60;27.70;;;;;;5031206;28;20829;-61
2024/01/01 01:50:43;;;;;;;17.70;16.40;;;7.70;27.60;;;;;;5028594;28;20507;-61
2024/01/01 01:53:10;;;;;;;16.00;14.83;;;7.70;27.40;;;;;;5007938;28;20431;-61
2024/01/01 01:55:36;;;;;;;17.03;15.50;;;7.70;27.40;;;;;;5033624;28;20839;-61
2024/01/01 01:58:01;;;;;;;15.30;14.20;;;7.70;27.50;;;;;;5007406;28;20558;-61
2024/01/01 02:00:27;;;;;;;15.57;14.33;;;7.70;27.60;;;;;;5015570;28;20181;-50
2024/01/01 02:02:53;;;;;;;17.57;16.20;;;7.70;27.40;;;;;;5015476;28;20454;-49
2024/01/01 02:08:41;;;;;;;11.90;11.00;;;7.80;28.30;;;;;;5028739;28;20473;-53
2024/01/01 02:11:06;;;;;;;12.87;12.07;;;7.80;28.00;;;;;;5015093;28;20420;-53
2024/01/01 02:13:33;;;;;;;11.40;10.50;;;7.70;28.20;;;;;;5015512;28;20284;-52
2024/01/01 02:16:00;;;;;;;12.73;11.83;;;7.70;28.20;;;;;;5033410;28;20199;-49
2024/01/01 02:18:25;;;;;;;11.83;11.13;;;7.70;28.40;;;;;;5031873;28;20466;-51
2024/01/01 02:20:51;;;;;;;11.63;10.83;;;7.80;28.40;;;;;;5031489;28;20481;-49
2024/01/01 02:23:18;;;;;;;13.20;12.27;;;7.90;28.50;;;;;;5033047;28;20188;-61
2024/01/01 02:25:44;;;;;;;12.83;11.97;;;8.00;27.90;;;;;;5031872;28;20188;-62
2024/01/01 02:28:11;;;;;;;12.77;11.87;;;7.90;28.10;;;;;;5031800;28;20459;-62
2024/01/01 02:30:37;;;;;;;13.47;12.37;;;7.90;28.40;;;;;;5031186;28;20421;-50
2024/01/01 02:33:07;;;;;;;12.93;12.03;;;8.00;28.40;;;;;;5031490;28;20419;-53
2024/01/01 02:35:33;;;;;;;12.70;11.93;;;7.80;28.30;;;;;;5031595;28;20481;-51
2024/01/01 02:37:59;;;;;;;14.23;13.13;;;7.80;28.60;;;;;;5016730;28;20974;-62
2024/01/01 02:40:25;;;;;;;11.13;10.33;;;7.70;28.80;;;;;;5014504;28;20447;-62
2024/01/01 02:42:50;;;;;;;12.17;11.20;;;7.60;29.00;;;;;;5014776;28;20801;-62
2024/01/01 02:45:16;;;;;;;11.27;10.67;;;7.70;29.00;;;;;;5014845;28;20181;-62
2024/01/01 02:47:43;;;;;;;10.13;9.60;;;7.70;28.90;;;;;;5015155;28;20191;-62
2024/01/01 02:50:08;;;;;;;10.50;9.80;;;7.80;29.00;;;;;;5014150;28;20276;-49
2024/01/01 02:52:34;;;;;;;11.10;10.40;;;7.90;28.80;;;;;;5014828;28;20473;-62
2024/01/01 02:55:00;;;;;;;10.77;10.07;;;8.20;28.60;;;;;;5014934;28;20637;-62
2024/01/01 02:57:26;;;;;;;12.63;11.83;;;8.40;27.50;;;;;;5031244;28;20226;-62
2024/01/01 02:59:51;;;;;;;12.00;11.00;;;8.50;27.50;;;;;;5030769;28;20188;-62
2024/01/01 03:02:18;;;;;;;10.83;10.13;;;8.60;27.10;;;;;;5032434;28;20430;-62
2024/01/01 03:04:44;;;;;;;11.13;10.23;;;8.60;26.80;;;;;;5014703;28;20884;-62
2024/01/01 03:07:10;;;;;;;11.60;10.83;;;8.60;26.60;;;;;;5022699;28;20424;-62
2024/01/01 03:09:35;;;;;;;11.47;10.77;;;8.70;26.60;;;;;;5027579;28;20208;-62
2024/01/01 03:12:01;;;;;;;11.43;10.73;;;8.70;26.70;;;;;;5013821;28;20192;-61
2024/01/01 03:14:27;;;;;;;12.00;11.10;;;8.80;26.60;;;;;;5016846;28;20628;-61
2024/01/01 03:16:52;;;;;;;10.73;10.03;;;8.80;26.60;;;;;;5025379;28;20272;-62
2024/01/01 03:19:18;;;;;;;10.73;10.13;;;9.00;26.20;;;;;;5014622;28;20203;-61
2024/01/01 03:21:43;;;;;;;11.80;11.10;;;9.10;25.90;;;;;;5014203;28;20588;-61
2024/01/01 03:24:09;;;;;;;10.10;9.50;;;9.20;25.80;;;;;;5014381;28;20176;-61
2024/01/01 03:26:34;;;;;;;11.37;10.67;;;9.20;25.60;;;;;;5014453;28;20279;-61
2024/01/01 03:29:00;;;;;;;11.73;10.63;;;9.20;25.60;;;;;;5014390;28;20212;-51
2024/01/01 03:31:26;;;;;;;10.13;9.43;;;9.20;25.60;;;;;;5013597;28;20276;-49
2024/01/01 03:33:51;;;;;;;11.60;10.50;;;9.10;25.50;;;;;;5014631;28;20184;-47
2024/01/01 03:36:17;;;;;;;10.67;10.07;;;9.20;25.70;;;;;;5014150;28;20621;-53
2024/01/01 03:38:43;;;;;;;11.27;10.57;;;9.10;25.50;;;;;;5014307;28;20656;-49
2024/01/01 03:41:08;;;;;;;10.93;10.33;;;9.00;25.70;;;;;;5029279;28;20189;-49
2024/01/01 03:43:34;;;;;;;11.83;11.07;;;8.90;26.20;;;;;;5030579;28;20663;-51
2024/01/01 03:45:59;;;;;;;12.23;11.20;;;8.90;26.70;;;;;;5016013;28;20180;-51
2024/01/01 03:48:25;;;;;;;11.57;10.63;;;8.90;26.30;;;;;;5013990;28;20267;-61
2024/01/01 03:50:50;;;;;;;11.17;10.47;;;9.00;26.00;;;;;;5013669;28;20223;-47
2024/01/01 03:53:16;;;;;;;11.07;10.17;;;9.10;25.60;;;;;;5013987;28;20272;-47
2024/01/01 03:55:42;;;;;;;11.27;10.40;;;9.10;26.10;;;;;;5012527;28;20189;-48
2024/01/01 03:58:07;;;;;;;11.90;11.10;;;9.10;26.10;;;;;;5028243;28;20188;-48
2024/01/01 04:00:33;;;;;;;9.90;9.40;;;9.10;25.90;;;;;;5012616;28;20571;-48
2024/01/01 04:02:58;;;;;;;11.50;10.70;;;9.10;25.90;;;;;;5013497;28;20227;-50
2024/01/01 04:05:24;;;;;;;11.00;10.23;;;9.00;26.40;;;;;;5023685;28;20298;-49
2024/01/01 04:07:51;;;;;;;9.83;9.20;;;9.00;26.30;;;;;;5017302;28;20185;-49
2024/01/01 04:10:17;;;;;;;10.30;9.70;;;9.00;26.40;;;;;;5013307;28;20246;-51
2024/01/01 04:12:43;;;;;;;9.20;8.70;;;9.00;26.60;;;;;;5030862;28;20430;-51
2024/01/01 04:15:08;;;;;;;9.30;8.80;;;8.90;26.50;;;;;;5019911;28;20419;-51
2024/01/01 04:17:34;;;;;;;10.77;9.97;;;8.70;27.10;;;;;;5030054;28;20192;-51
2024/01/01 04:20:00;;;;;;;10.43;9.77;;;8.80;27.00;;;;;;5029668;28;20185;-49
2024/01/01 04:22:25;;;;;;;9.57;8.80;;;8.70;26.70;;;;;;5030548;28;20648;-52
2024/01/01 04:24:51;;;;;;;10.10;9.37;;;8.50;27.10;;;;;;5033958;28;20223;-48
2024/01/01 04:27:18;;;;;;;9.07;8.47;;;8.40;27.80;;;;;;5034135;28;20180;-49
2024/01/01 04:29:44;;;;;;;8.97;8.37;;;8.40;27.80;;;;;;5018637;28;20345;-48
2024/01/01 04:32:09;;;;;;;9.30;8.70;;;8.40;27.70;;;;;;5015771;28;20416;-49
2024/01/01 04:34:35;;;;;;;8.80;8.20;;;8.20;28.10;;;;;;5034031;28;20192;-51
2024/01/01 04:37:01;;;;;;;8.10;7.60;;;8.30;28.10;;;;;;5034463;28;20191;-51
2024/01/01 04:39:27;;;;;;;8.40;7.90;;;8.40;27.90;;;;;;5015408;28;20427;-51
2024/01/01 04:41:53;;;;;;;8.63;8.23;;;8.40;27.90;;;;;;5023867;28;20433;-61
2024/01/01 04:44:19;;;;;;;8.40;7.90;;;8.40;27.50;;;;;;5015939;28;20423;-60
2024/01/01 04:46:45;;;;;;;8.63;8.23;;;8.40;27.60;;;;;;5016706;28;20200;-61
2024/01/01 04:49:10;;;;;;;8.23;7.73;;;8.20;28.00;;;;;;5016943;28;20495;-61
2024/01/01 04:51:36;;;;;;;8.77;8.27;;;8.20;28.40;;;;;;5016447;28;20427;-61
2024/01/01 04:54:01;;;;;;;8.00;7.60;;;8.10;28.20;;;;;;5017113;28;20176;-61
2024/01/01 04:56:27;;;;;;;7.80;7.30;;;8.00;28.70;;;;;;5016628;28;20271;-61
2024/01/01 04:58:54;;;;;;;8.00;7.60;;;7.90;29.00;;;;;;5015960;28;20276;-61
2024/01/01 05:01:19;;;;;;;8.10;7.60;;;7.90;29.00;;;;;;5016299;28;20295;-61
2024/01/01 05:03:45;;;;;;;7.70;7.30;;;7.90;29.00;;;;;;5016580;28;20465;-61
2024/01/01 05:06:11;;;;;;;7.43;6.97;;;8.00;28.90;;;;;;5016767;28;20443;-61
2024/01/01 05:08:37;;;;;;;8.20;7.77;;;7.90;29.10;;;;;;5016672;28;20192;-50
2024/01/01 05:11:05;;;;;;;7.70;7.30;;;7.90;29.00;;;;;;5015853;28;20180;-53
2024/01/01 05:13:31;;;;;;;8.47;7.87;;;8.00;29.30;;;;;;5015635;28;20177;-50
2024/01/01 05:15:57;;;;;;;8.00;7.60;;;8.20;29.40;;;;;;5015837;28;20490;-51
2024/01/01 05:18:22;;;;;;;7.90;7.23;;;8.20;28.80;;;;;;5016737;28;20204;-50
2024/01/01 05:20:48;;;;;;;8.00;7.20;;;8.10;29.00;;;;;;5016063;28;20188;-48
2024/01/01 05:23:14;;;;;;;7.80;7.43;;;8.00;29.30;;;;;;5016299;28;20185;-49
2024/01/01 05:25:39;;;;;;;6.90;6.60;;;7.90;29.40;;;;;;5016288;28;20199;-52
2024/01/01 05:28:07;;;;;;;8.07;7.53;;;8.00;29.00;;;;;;5016229;28;20553;-53
2024/01/01 05:30:34;;;;;;;7.07;6.67;;;7.80;28.60;;;;;;5016012;28;20659;-53
2024/01/01 05:33:00;;;;;;;7.10;6.70;;;7.80;29.00;;;;;;5015554;28;20419;-48
2024/01/01 05:35:25;;;;;;;7.83;7.47;;;7.60;29.80;;;;;;5016242;28;20436;-50
2024/01/01 05:37:51;;;;;;;7.40;6.87;;;7.70;28.90;;;;;;5016401;28;20256;-50
2024/01/01 05:40:16;;;;;;;7.67;7.17;;;7.70;28.70;;;;;;5015665;28;20181;-53
2024/01/01 05:42:42;;;;;;;7.97;7.33;;;7.70;28.70;;;;;;5015148;28;20185;-49
2024/01/01 05:45:08;;;;;;;7.93;7.53;;;7.70;29.00;;;;;;5015273;28;20666;-48
2024/01/01 05:47:33;;;;;;;7.60;7.10;;;7.60;29.40;;;;;;5016275;28;20187;-52
2024/01/01 05:50:00;;;;;;;7.53;7.13;;;7.60;29.50;;;;;;5015438;28;20592;-54
2024/01/01 05:52:25;;;;;;;7.87;7.40;;;7.60;29.50;;;;;;5015853;28;20180;-51
2024/01/01 05:54:51;;;;;;;7.30;6.90;;;7.60;29.50;;;;;;5015846;28;20528;-53
2024/01/01 05:57:16;;;;;;;8.23;7.63;;;7.50;29.90;;;;;;5015147;28;20288;-50
2024/01/01 05:59:42;;;;;;;7.43;6.97;;;7.40;30.20;;;;;;5014262;28;20595;-49
2024/01/01 06:02:08;;;;;;;7.87;7.57;;;7.40;30.30;;;;;;5015682;28;20180;-49
2024/01/01 06:04:33;;;;;;;8.20;7.63;;;7.50;30.40;;;;;;5015811;28;20598;-48
2024/01/01 06:06:59;;;;;;;7.90;7.37;;;7.60;30.40;;;;;;5015659;28;20176;-49
2024/01/01 06:09:24;;;;;;;7.57;7.27;;;7.50;29.80;;;;;;5015834;28;20581;-48
2024/01/01 06:11:50;;;;;;;8.27;7.80;;;7.50;30.00;;;;;;5014460;28;20622;-48
2024/01/01 06:14:16;;;;;;;8.30;7.90;;;7.50;30.10;;;;;;5014592;28;20188;-48
2024/01/01 06:16:43;;;;;;;7.47;7.17;;;7.70;30.00;;;;;;5015095;28;20211;-51
2024/01/01 06:19:10;;;;;;;8.63;8.13;;;7.70;29.50;;;;;;5015580;28;20719;-49
2024/01/01 06:21:35;;;;;;;8.77;8.30;;;7.80;29.10;;;;;;5032725;28;20426;-50
2024/01/01 06:24:01;;;;;;;7.30;6.90;;;7.80;29.10;;;;;;5015323;28;20858;-48
2024/01/01 06:26:27;;;;;;;7.70;7.23;;;7.80;29.10;;;;;;5032703;28;20708;-49
2024/01/01 06:28:52;;;;;;;8.47;7.83;;;7.80;28.70;;;;;;5014457;28;20265;-49
2024/01/01 06:31:18;;;;;;;7.97;7.57;;;7.80;28.90;;;;;;5014507;28;20180;-51
2024/01/01 06:33:43;;;;;;;8.20;7.57;;;7.90;28.60;;;;;;5015202;28;20649;-49
2024/01/01 06:36:10;;;;;;;9.07;8.23;;;8.00;28.50;;;;;;5015100;28;20251;-49
2024/01/01 06:38:36;;;;;;;7.57;7.17;;;7.80;28.80;;;;;;5015231;28;20215;-50
2024/01/01 06:41:02;;;;;;;7.60;7.20;;;7.70;28.60;;;;;;5014378;28;20431;-48
2024/01/01 06:43:28;;;;;;;9.10;8.30;;;7.70;29.20;;;;;;5014151;28;20423;-51
2024/01/01 06:45:54;;;;;;;8.00;7.60;;;7.70;28.70;;;;;;5013857;28;20767;-51
2024/01/01 06:48:20;;;;;;;7.20;6.90;;;7.60;28.30;;;;;;5015001;28;20200;-49
2024/01/01 06:50:45;;;;;;;7.70;7.40;;;7.50;28.60;;;;;;5014646;28;20214;-48
2024/01/01 06:53:11;;;;;;;7.80;7.30;;;7.40;28.90;;;;;;5014949;28;20176;-53
2024/01/01 06:55:36;;;;;;;7.47;6.77;;;7.40;28.90;;;;;;5032828;28;20177;-52
2024/01/01 06:58:02;;;;;;;6.93;6.63;;;7.30;28.70;;;;;;5015042;28;20195;-49
2024/01/01 07:00:28;;;;;;;7.60;7.10;;;7.20;29.20;;;;;;5018807;28;20173;-50
2024/01/01 07:02:54;;;;;;;8.33;7.60;;;7.20;29.80;;;;;;5010872;28;20558;-50
2024/01/01 07:05:21;;;;;;;7.60;7.10;;;7.20;29.20;;;;;;5015061;28;20187;-48
2024/01/01 07:07:47;;;;;;;8.43;7.77;;;7.20;29.60;;;;;;5014786;28;20419;-50
2024/01/01 07:10:13;;;;;;;7.37;7.07;;;7.20;29.60;;;;;;5014273;28;20550;-49
2024/01/01 07:12:38;;;;;;;8.47;7.67;;;7.10;29.30;;;;;;5014590;28;20550;-62
2024/01/01 07:15:05;;;;;;;7.57;7.03;;;7.20;30.00;;;;;;5014726;28;20517;-62
2024/01/01 07:17:31;;;;;;;8.70;8.00;;;7.20;29.40;;;;;;5014371;28;20219;-62
2024/01/01 07:19:56;;;;;;;7.93;7.43;;;7.30;29.20;;;;;;5014009;28;20424;-62
2024/01/01 07:22:22;;;;;;;7.83;7.40;;;7.30;29.20;;;;;;5022653;28;20208;-62
2024/01/01 07:24:48;;;;;;;7.93;7.47;;;7.30;29.10;;;;;;5014602;28;20200;-63
2024/01/01 07:27:14;;;;;;;7.73;7.23;;;7.30;29.30;;;;;;5014303;28;20930;-62
2024/01/01 07:29:40;;;;;;;7.93;7.53;;;7.40;29.40;;;;;;5020210;28;20300;-62
2024/01/01 07:32:06;;;;;;;8.20;7.70;;;7.40;29.00;;;;;;5014442;28;20184;-62
2024/01/01 07:34:32;;;;;;;7.47;6.97;;;7.20;29.10;;;;;;5014087;28;20420;-61
2024/01/01 07:36:58;;;;;;;8.20;7.60;;;7.20;29.40;;;;;;4994580;28;20432;-62
2024/01/01 07:39:24;;;;;;;7.87;7.47;;;7.20;29.00;;;;;;4994459;28;20524;-62
2024/01/01 07:41:53;;;;;;;8.43;7.80;;;7.20;29.40;;;;;;4993947;28;20618;-62
2024/01/01 07:44:20;;;;;;;8.77;8.27;;;7.20;29.40;;;;;;4994779;28;20427;-62
2024/01/01 07:46:48;;;;;;;8.07;7.67;;;7.20;29.30;;;;;;4991391;28;20463;-62
2024/01/01 07:49:13;;;;;;;7.90;7.50;;;7.20;29.30;;;;;;4994225;28;21053;-62
2024/01/01 07:51:47;;;;;;;7.57;7.17;;;7.30;29.20;;;;;;5011418;28;20451;-62
2024/01/01 07:54:13;;;;;;;8.27;7.67;;;7.30;29.00;;;;;;4991017;28;20458;-62
2024/01/01 07:56:43;;;;;;;7.83;7.33;;;7.30;29.20;;;;;;4988331;28;20420;-62
2024/01/01 07:59:12;;;;;;;8.10;7.70;;;7.30;29.20;;;;;;4987659;28;20181;-63
2024/01/01 08:01:40;;;;;;;7.27;6.67;;;7.40;29.30;;;;;;4990570;28;20522;-62
2024/01/01 08:04:07;;;;;;;7.30;6.90;;;7.40;29.00;;;;;;4993034;28;20436;-63
2024/01/01 08:06:33;;;;;;;7.27;6.60;;;7.30;29.10;;;;;;4994388;28;20518;-61
2024/01/01 08:08:59;;;;;;;7.57;7.07;;;7.30;29.00;;;;;;4992890;28;20476;-61
2024/01/01 08:11:25;;;;;;;7.97;7.37;;;7.30;28.90;;;;;;4989346;28;20439;-62
2024/01/01 08:13:51;;;;;;;7.23;6.83;;;7.30;29.00;;;;;;4993101;28;20188;-62
2024/01/01 08:16:19;;;;;;;7.03;6.50;;;7.40;28.80;;;;;;4992571;28;20924;-51
2024/01/01 08:18:46;;;;;;;7.43;6.73;;;7.40;28.60;;;;;;4992265;28;20184;-52
2024/01/01 08:21:11;;;;;;;7.73;7.23;;;7.40;29.00;;;;;;5009129;28;21012;-50
2024/01/01 08:23:38;;;;;;;6.93;6.50;;;7.40;29.00;;;;;;4993441;28;20520;-49
2024/01/01 08:26:05;;;;;;;6.50;6.10;;;7.50;28.80;;;;;;4994160;28;20560;-53
2024/01/01 08:28:32;;;;;;;7.33;6.90;;;7.60;28.70;;;;;;4997568;28;20539;-54
2024/01/01 08:30:58;;;;;;;7.07;6.60;;;7.70;28.80;;;;;;4993426;28;20421;-53
2024/01/01 08:33:24;;;;;;;7.17;6.57;;;7.60;29.00;;;;;;4994084;28;20427;-53
2024/01/01 08:35:53;;;;;;;7.07;6.60;;;7.60;29.00;;;;;;4998460;28;21009;-51
2024/01/01 08:38:19;;;;;;;7.90;7.30;;;7.60;29.50;;;;;;5004422;28;20185;-50
2024/01/01 08:40:44;;;;;;;8.27;6.90;;;7.70;29.30;;;;;;5001371;28;20920;-50
2024/01/01 08:43:10;;;;;;;7.23;6.53;;;7.70;29.20;;;;;;5022607;28;20416;-48
2024/01/01 08:45:37;;;;;;;7.17;6.60;;;7.80;29.10;;;;;;5023526;28;20219;-49
2024/01/01 08:48:03;;;;;;;7.50;6.90;;;7.80;29.00;;;;;;5003363;28;20181;-48
2024/01/01 08:50:28;;;;;;;7.30;6.90;;;7.90;28.80;;;;;;5001554;28;20424;-49
2024/01/01 08:52:54;;;;;;;6.47;6.17;;;7.70;29.10;;;;;;5010934;28;20462;-50
2024/01/01 08:55:19;;;;;;;7.37;6.87;;;7.70;29.50;;;;;;5012977;28;20179;-52
2024/01/01 08:57:45;;;;;;;6.73;6.43;;;7.80;29.10;;;;;;5005348;28;20213;-49
2024/01/01 09:00:11;;;;;;;7.30;6.80;;;7.90;29.40;;;;;;5007148;28;20181;-50
2024/01/01 09:02:37;;;;;;;8.00;7.50;;;8.00;28.80;;;;;;5007541;28;20172;-52
2024/01/01 09:05:03;;;;;;;7.10;6.53;;;8.00;28.70;;;;;;5031229;28;20484;-49
2024/01/01 09:07:28;;;;;;;6.90;6.40;;;8.10;28.40;;;;;;5013537;28;20181;-48
2024/01/01 09:09:54;;;;;;;9.70;6.47;;;8.10;28.10;;;;;;5011628;28;20211;-50
2024/01/01 09:12:20;;;;;;;7.40;6.90;;;8.20;27.90;;;;;;5016958;28;20542;-48
2024/01/01 09:14:46;;;;;;;7.83;7.13;;;8.20;28.10;;;;;;5016599;28;20181;-48
2024/01/01 09:17:11;;;;;;;6.97;6.60;;;8.20;27.80;;;;;;5034815;28;20172;-48
2024/01/01 09:19:37;;;;;;;6.30;6.00;;;8.20;27.80;;;;;;5016272;28;20660;-47
2024/01/01 09:22:04;;;;;;;6.67;6.27;;;8.20;27.60;;;;;;5015531;28;20185;-48
2024/01/01 09:24:30;;;;;;;7.83;7.40;;;8.40;27.30;;;;;;5015599;28;20966;-50
2024/01/01 09:26:55;;;;;;;17.87;16.07;;;8.40;27.50;;;;;;5006477;28;20507;-52
2024/01/01 09:29:23;;;;;;;7.80;7.10;;;8.50;26.80;;;;;;5005376;28;20201;-50
2024/01/01 09:31:49;;;;;;;7.23;6.63;;;8.60;26.10;;;;;;5020880;28;20186;-50
2024/01/01 09:34:15;;;;;;;6.70;6.30;;;8.60;26.20;;;;;;5016383;28;20418;-51
2024/01/01 09:36:41;;;;;;;6.83;6.30;;;8.70;26.10;;;;;;5013171;28;20519;-47
2024/01/01 09:39:07;;;;;;;6.53;6.00;;;8.70;25.60;;;;;;5007605;28;20519;-51
2024/01/01 09:41:33;;;;;;;6.20;5.90;;;8.70;25.60;;;;;;5013372;28;20514;-51
2024/01/01 09:44:00;;;;;;;6.60;6.10;;;8.60;25.80;;;;;;5011894;28;20420;-47
2024/01/01 09:46:28;;;;;;;6.27;5.67;;;8.70;25.90;;;;;;5029392;28;20176;-52
2024/01/01 09:48:54;;;;;;;5.77;5.47;;;8.70;25.80;;;;;;5015440;28;20505;-47
2024/01/01 09:51:20;;;;;;;6.20;5.80;;;8.80;26.30;;;;;;5012730;28;20804;-48
2024/01/01 09:53:46;;;;;;;6.33;5.73;;;8.90;24.90;;;;;;5014786;28;20430;-48
2024/01/01 09:56:11;;;;;;;8.07;7.30;;;8.90;25.30;;;;;;5015522;28;20242;-48
2024/01/01 09:58:44;;;;;;;6.70;6.30;;;8.80;24.40;;;;;;5009544;28;20427;-49
2024/01/01 10:01:19;;;;;;;7.10;6.60;;;8.90;24.50;;;;;;5005904;28;20244;-48
2024/01/01 10:04:01;;;;;;;6.07;5.77;;;8.90;24.90;;;;;;5007102;28;20415;-50
2024/01/01 10:06:27;;;;;;;6.53;6.03;;;9.00;25.20;;;;;;5007327;28;20830;-50
2024/01/01 10:09:05;;;;;;;6.53;6.03;;;9.00;24.40;;;;;;5023442;28;20456;-53
2024/01/01 10:11:31;;;;;;;5.73;5.43;;;8.90;24.90;;;;;;5009700;28;20448;-51
2024/01/01 10:14:07;;;;;;;8.30;6.10;;;8.80;24.20;;;;;;5004726;28;20437;-51
2024/01/01 10:16:33;;;;;;;6.00;5.70;;;8.80;24.80;;;;;;5012844;28;20184;-52
2024/01/01 10:19:01;;;;;;;6.20;5.90;;;8.90;24.50;;;;;;5014597;28;20955;-53
2024/01/01 10:21:29;;;;;;;5.83;5.37;;;8.90;24.30;;;;;;5011841;28;20942;-62
2024/01/01 10:24:11;;;;;;;6.30;5.80;;;8.90;24.10;;;;;;5015211;28;20419;-61
2024/01/01 10:26:39;;;;;;;6.87;6.17;;;8.90;24.50;;;;;;5014258;28;20451;-61
2024/01/01 10:29:08;;;;;;;5.60;5.30;;;9.00;23.70;;;;;;5033028;28;20554;-61
2024/01/01 10:31:34;;;;;;;5.60;5.10;;;9.00;23.60;;;;;;5013660;28;20841;-62
2024/01/01 10:34:03;;;;;;;6.13;5.70;;;9.10;23.40;;;;;;5017190;28;20416;-51
2024/01/01 10:36:29;;;;;;;6.87;6.27;;;9.10;23.30;;;;;;5007049;28;20268;-51
2024/01/01 10:38:56;;;;;;;7.50;6.93;;;9.10;23.00;;;;;;5019950;28;20425;-62
2024/01/01 10:41:22;;;;;;;5.63;5.30;;;9.20;23.50;;;;;;5027531;28;20430;-62
2024/01/01 10:43:50;;;;;;;5.60;5.10;;;9.30;22.90;;;;;;5012493;28;20439;-62
2024/01/01 10:46:18;;;;;;;5.67;5.17;;;9.20;22.80;;;;;;5010546;28;20192;-62
2024/01/01 10:48:46;;;;;;;6.23;5.73;;;9.30;22.90;;;;;;5013667;28;20455;-62
2024/01/01 10:51:31;;;;;;;6.63;6.23;;;9.10;22.70;;;;;;5013513;28;20419;-62
2024/01/01 10:54:18;;;;;;;6.03;5.50;;;9.10;22.80;;;;;;5003900;28;20423;-62
2024/01/01 10:56:56;;;;;;;7.73;7.00;;;9.10;22.80;;;;;;5014164;28;20462;-49
2024/01/01 10:59:31;;;;;;;6.57;6.07;;;9.10;22.50;;;;;;5014257;28;20427;-51
2024/01/01 11:01:57;;;;;;;7.63;6.43;;;9.20;22.10;;;;;;5010296;28;20418;-52
2024/01/01 11:04:23;;;;;;;7.13;6.63;;;9.20;21.90;;;;;;5022491;28;20887;-52
2024/01/01 11:06:49;;;;;;;6.70;6.30;;;9.20;22.00;;;;;;5014267;28;20430;-51
2024/01/01 11:09:21;;;;;;;6.80;6.23;;;9.30;21.70;;;;;;5013311;28;20470;-53
2024/01/01 11:11:51;;;;;;;6.70;6.00;;;9.30;21.70;;;;;;5006198;28;20173;-52
2024/01/01 11:14:42;;;;;;;6.77;6.07;;;9.40;21.60;;;;;;5013435;28;20415;-50
2024/01/01 11:17:09;;;;;;;6.23;5.73;;;9.50;20.90;;;;;;5009648;28;20416;-53
2024/01/01 11:19:35;;;;;;;6.10;5.70;;;9.50;20.30;;;;;;5013626;28;20463;-50
2024/01/01 11:22:20;;;;;;;7.57;6.83;;;9.40;20.50;;;;;;5013317;28;20427;-52
2024/01/01 11:24:50;;;;;;;7.53;6.67;;;9.40;20.40;;;;;;5013942;28;20446;-53
2024/01/01 11:27:28;;;;;;;6.87;6.37;;;9.40;20.10;;;;;;5016929;28;20443;-50
2024/01/01 11:30:05;;;;;;;7.00;6.40;;;9.40;19.90;;;;;;5006304;28;20796;-51
2024/01/01 11:32:32;;;;;;;6.90;6.30;;;9.40;19.80;;;;;;5006357;28;20426;-53
2024/01/01 11:35:11;;;;;;;6.40;5.87;;;9.40;19.70;;;;;;5006366;28;20442;-53
2024/01/01 11:37:39;;;;;;;7.03;5.97;;;9.50;19.80;;;;;;5010901;28;20515;-53
2024/01/01 11:40:06;;;;;;;7.17;6.53;;;9.60;19.40;;;;;;5005138;28;20415;-51
2024/01/01 11:42:32;;;;;;;10.60;6.10;;;9.60;19.30;;;;;;5013478;28;20415;-62
2024/01/01 11:45:16;;;;;;;6.53;6.03;;;9.60;19.50;;;;;;5013070;28;20427;-62
2024/01/01 11:47:42;;;;;;;6.07;5.50;;;9.60;19.40;;;;;;5013418;28;20415;-62
2024/01/01 11:50:08;;;;;;;7.20;6.27;;;9.60;19.10;;;;;;5013150;28;20542;-62
2024/01/01 11:52:34;;;;;;;6.93;5.70;;;9.60;19.30;;;;;;5008595;28;20451;-62
2024/01/01 11:55:00;;;;;;;7.00;6.30;;;9.70;20.00;;;;;;5013719;28;20452;-62
2024/01/01 11:57:26;;;;;;;7.03;6.47;;;9.60;20.20;;;;;;5016765;28;20205;-62
2024/01/01 11:59:52;;;;;;;7.50;6.90;;;9.60;19.60;;;;;;5011426;28;20844;-62
2024/01/01 12:02:19;;;;;;;6.53;5.93;;;9.60;21.10;;;;;;5014861;28;20538;-62
2024/01/01 12:04:51;;;;;;;6.27;5.70;;;9.50;20.40;;;;;;5006087;28;20423;-62
2024/01/01 12:07:30;;;;;;;7.93;6.07;;;9.40;19.80;;;;;;5010073;28;20491;-62
2024/01/01 12:10:14;;;;;;;7.73;6.10;;;9.30;20.40;;;;;;5004730;28;20559;-62
2024/01/01 12:12:42;;;;;;;7.47;5.50;;;9.40;20.70;;;;;;5014123;28;20423;-62
2024/01/01 12:15:14;;;;;;;6.43;5.70;;;9.40;20.20;;;;;;5012585;28;20470;-62
2024/01/01 12:17:41;;;;;;;7.33;6.73;;;9.50;20.10;;;;;;5012866;28;20864;-62
2024/01/01 12:20:09;;;;;;;5.97;5.50;;;9.60;20.20;;;;;;5012731;28;20454;-61
2024/01/01 12:22:36;;;;;;;6.47;5.87;;;9.60;19.40;;;;;;5012894;28;20423;-61
2024/01/01 12:25:01;;;;;;;6.17;5.63;;;9.60;19.90;;;;;;5013362;28;20416;-61
2024/01/01 12:27:27;;;;;;;6.17;5.67;;;9.40;20.50;;;;;;5012481;28;20422;-61
2024/01/01 12:29:56;;;;;;;5.37;4.97;;;9.30;20.70;;;;;;5004976;28;20314;-61
2024/01/01 12:32:23;;;;;;;6.03;5.50;;;9.20;20.80;;;;;;5012971;28;20401;-61
2024/01/01 12:34:50;;;;;;;5.90;5.40;;;9.20;21.10;;;;;;5012952;28;20419;-61
2024/01/01 12:37:17;;;;;;;6.43;5.83;;;9.40;21.00;;;;;;5016839;28;20778;-60
2024/01/01 12:39:43;;;;;;;7.17;5.30;;;9.40;21.00;;;;;;5010531;28;20430;-61
2024/01/01 12:42:09;;;;;;;5.23;4.83;;;9.40;20.90;;;;;;5012919;28;20420;-61
2024/01/01 12:44:36;;;;;;;5.50;5.10;;;9.50;20.30;;;;;;5012290;28;20428;-61
2024/01/01 12:47:02;;;;;;;8.57;5.70;;;9.40;20.30;;;;;;5013837;28;20177;-61
2024/01/01 12:49:33;;;;;;;5.73;5.33;;;9.30;20.30;;;;;;5015245;28;20601;-61
2024/01/01 12:51:58;;;;;;;5.73;5.23;;;9.40;20.50;;;;;;5009629;28;20411;-62